createdAt,value
2019-04-23T00:01:29.554Z,2.67
2019-04-23T00:03:58.431Z,1.63
2019-04-23T00:06:32.272Z,2.93
2019-04-23T00:09:18.944Z,3.77
2019-04-23T00:14:11.904Z,3.63
2019-04-23T00:16:40.876Z,3.87
2019-04-23T00:19:15.234Z,2.73
2019-04-23T00:21:57.469Z,2.87
2019-04-23T00:25:11.557Z,2.60
2019-04-23T00:27:28.847Z,3.33
2019-04-23T00:30:26.556Z,2.87
2019-04-23T00:34:56.387Z,3.57
2019-04-23T00:37:31.547Z,2.90
2019-04-23T00:42:29.663Z,4.10
2019-04-23T00:44:57.351Z,3.93
2019-04-23T00:47:48.650Z,2.90
2019-04-23T00:50:12.731Z,3.77
2019-04-23T00:52:33.568Z,4.03
2019-04-23T00:55:12.362Z,4.03
2019-04-23T00:57:47.019Z,2.67
2019-04-23T01:02:51.132Z,3.00
2019-04-23T01:07:48.325Z,3.17
2019-04-23T01:10:23.364Z,3.23
2019-04-23T01:18:02.204Z,4.07
2019-04-23T01:20:36.813Z,3.03
2019-04-23T01:22:48.858Z,4.20
2019-04-23T01:25:34.199Z,2.53
2019-04-23T01:28:28.265Z,3.57
2019-04-23T01:31:02.576Z,4.57
2019-04-23T01:33:33.031Z,2.87
2019-04-23T01:36:09.613Z,3.27
2019-04-23T01:38:34.823Z,3.33
2019-04-23T01:41:00.338Z,4.40
2019-04-23T01:43:37.809Z,3.37
2019-04-23T01:46:08.066Z,3.97
2019-04-23T01:48:42.407Z,3.77
2019-04-23T01:51:01.844Z,2.17
2019-04-23T01:53:42.304Z,3.33
2019-04-23T01:56:13.383Z,3.63
2019-04-23T01:58:51.892Z,3.20
2019-04-23T02:01:18.984Z,3.00
2019-04-23T02:06:20.394Z,3.80
2019-04-23T02:08:52.464Z,4.57
2019-04-23T02:11:16.486Z,4.13
2019-04-23T02:14:09.638Z,4.13
2019-04-23T02:16:25.779Z,2.90
2019-04-23T02:18:56.221Z,4.43
2019-04-23T02:21:47.517Z,3.13
2019-04-23T02:23:57.081Z,3.57
2019-04-23T02:26:34.319Z,3.90
2019-04-23T02:29:26.164Z,3.00
2019-04-23T02:31:53.005Z,3.73
2019-04-23T02:34:28.965Z,4.37
2019-04-23T02:39:12.604Z,0.87
2019-04-23T02:41:54.250Z,4.17
2019-04-23T02:47:03.475Z,3.83
2019-04-23T02:49:33.968Z,4.07
2019-04-23T02:52:01.832Z,2.47
2019-04-23T03:04:50.695Z,4.50
2019-04-23T03:09:56.544Z,4.87
2019-04-23T03:12:43.374Z,4.33
2019-04-23T03:18:16.396Z,3.93
2019-04-23T03:20:48.377Z,4.23
2019-04-23T03:23:34.891Z,4.67
2019-04-23T03:28:27.348Z,3.47
2019-04-23T03:41:14.974Z,2.67
2019-04-23T03:51:05.614Z,4.10
2019-04-23T03:53:54.660Z,3.83
2019-04-23T03:56:18.917Z,3.47
2019-04-23T03:58:42.386Z,3.87
2019-04-23T04:04:18.995Z,5.37
2019-04-23T04:06:48.349Z,4.03
2019-04-23T04:08:55.986Z,3.60
2019-04-23T04:16:19.416Z,3.53
2019-04-23T04:19:04.439Z,4.10
2019-04-23T04:24:03.242Z,3.53
2019-04-23T04:26:36.892Z,5.73
2019-04-23T04:34:10.892Z,4.77
2019-04-23T04:36:45.863Z,3.97
2019-04-23T04:41:40.631Z,4.90
2019-04-23T04:46:45.769Z,5.40
2019-04-23T04:49:17.047Z,3.63
2019-04-23T04:51:51.484Z,4.47
2019-04-23T04:56:42.620Z,5.33
2019-04-23T05:01:48.327Z,6.43
2019-04-23T05:04:26.745Z,4.17
2019-04-23T05:09:20.741Z,5.20
2019-04-23T05:14:44.015Z,6.57
2019-04-23T05:19:43.823Z,6.20
2019-04-23T05:24:31.278Z,6.27
2019-04-23T05:26:58.345Z,5.37
2019-04-23T05:29:30.329Z,5.83
2019-04-23T05:32:02.820Z,5.93
2019-04-23T05:34:38.651Z,5.90
2019-04-23T05:37:04.929Z,7.30
2019-04-23T05:39:39.740Z,6.50
2019-04-23T05:42:04.452Z,6.10
2019-04-23T05:47:16.054Z,6.57
2019-04-23T05:49:37.891Z,6.03
2019-04-23T05:52:29.876Z,6.37
2019-04-23T05:54:49.690Z,6.20
2019-04-23T05:57:14.235Z,6.77
2019-04-23T05:59:46.846Z,6.50
2019-04-23T06:02:21.863Z,3.90
2019-04-23T06:04:49.878Z,7.20
2019-04-23T06:09:59.172Z,7.00
2019-04-23T06:12:27.895Z,4.27
2019-04-23T06:14:57.598Z,6.97
2019-04-23T06:17:27.097Z,6.13
2019-04-23T06:20:04.286Z,7.43
2019-04-23T06:22:36.682Z,5.13
2019-04-23T06:25:12.601Z,6.00
2019-04-23T06:30:08.701Z,6.77
2019-04-23T06:32:37.707Z,6.13
2019-04-23T06:38:04.453Z,7.40
2019-04-23T06:40:20.432Z,4.20
2019-04-23T06:43:11.579Z,5.37
2019-04-23T06:45:38.895Z,5.00
2019-04-23T06:48:23.696Z,5.93
2019-04-23T06:50:52.685Z,6.40
2019-04-23T06:53:12.509Z,5.60
2019-04-23T06:55:50.931Z,4.40
2019-04-23T06:58:26.054Z,5.77
2019-04-23T07:00:59.424Z,4.33
2019-04-23T07:03:33.572Z,5.60
2019-04-23T07:06:20.674Z,6.43
2019-04-23T07:11:17.185Z,4.50
2019-04-23T07:13:53.166Z,5.40
2019-04-23T07:16:09.901Z,5.30
2019-04-23T07:18:41.223Z,5.57
2019-04-23T07:21:18.362Z,5.13
2019-04-23T07:28:54.677Z,4.23
2019-04-23T07:36:31.046Z,5.03
2019-04-23T07:39:07.641Z,5.33
2019-04-23T07:44:57.944Z,5.20
2019-04-23T07:48:06.567Z,4.33
2019-04-23T07:50:33.553Z,5.53
2019-04-23T07:53:05.644Z,5.47
2019-04-23T07:55:43.155Z,5.37
2019-04-23T07:58:10.602Z,4.07
2019-04-23T08:00:41.422Z,4.53
2019-04-23T08:03:17.805Z,5.30
2019-04-23T08:05:49.528Z,4.63
2019-04-23T08:08:07.368Z,5.90
2019-04-23T08:11:11.160Z,5.53
2019-04-23T08:13:16.102Z,5.00
2019-04-23T08:15:51.033Z,4.13
2019-04-23T08:18:17.840Z,5.07
2019-04-23T08:20:49.609Z,5.97
2019-04-23T08:23:40.470Z,5.57
2019-04-23T08:26:26.830Z,5.13
2019-04-23T08:29:00.986Z,5.30
2019-04-23T08:31:27.057Z,5.37
2019-04-23T08:33:56.517Z,5.33
2019-04-23T08:36:31.269Z,4.60
2019-04-23T08:38:57.585Z,4.17
2019-04-23T08:41:35.901Z,5.60
2019-04-23T08:44:21.616Z,5.20
2019-04-23T08:46:57.315Z,5.33
2019-04-23T08:49:29.657Z,4.80
2019-04-23T08:52:00.254Z,5.23
2019-04-23T08:54:39.661Z,5.60
2019-04-23T08:57:02.683Z,5.10
2019-04-23T08:59:39.342Z,4.17
2019-04-23T09:02:18.885Z,4.53
2019-04-23T09:04:31.240Z,3.93
2019-04-23T09:07:11.453Z,4.73
2019-04-23T09:12:10.360Z,4.60
2019-04-23T09:14:38.152Z,4.80
2019-04-23T09:17:11.128Z,4.07
2019-04-23T09:19:56.247Z,3.87
2019-04-23T09:22:29.616Z,3.53
2019-04-23T09:24:47.137Z,3.33
2019-04-23T09:27:23.475Z,5.20
2019-04-23T09:29:51.443Z,2.67
2019-04-23T09:32:26.888Z,4.33
2019-04-23T09:35:14.421Z,4.00
2019-04-23T09:38:03.659Z,4.07
2019-04-23T09:41:15.853Z,3.60
2019-04-23T09:43:31.214Z,4.57
2019-04-23T09:46:17.657Z,4.07
2019-04-23T09:48:51.123Z,4.73
2019-04-23T09:51:17.423Z,3.60
2019-04-23T09:53:58.022Z,4.97
2019-04-23T09:56:22.479Z,3.57
2019-04-23T09:58:52.154Z,4.77
2019-04-23T10:03:46.334Z,4.73
2019-04-23T10:06:14.551Z,3.97
2019-04-23T10:08:44.975Z,3.90
2019-04-23T10:11:11.744Z,3.90
2019-04-23T10:13:42.810Z,3.33
2019-04-23T10:16:15.738Z,4.20
2019-04-23T10:18:44.909Z,3.17
2019-04-23T10:21:15.562Z,3.50
2019-04-23T10:23:45.473Z,3.90
2019-04-23T10:26:16.428Z,4.57
2019-04-23T10:28:54.009Z,3.50
2019-04-23T10:31:25.266Z,4.50
2019-04-23T10:33:55.961Z,3.37
2019-04-23T10:36:27.891Z,4.10
2019-04-23T10:39:05.642Z,4.43
2019-04-23T10:41:29.166Z,3.97
2019-04-23T10:44:06.950Z,4.47
2019-04-23T10:47:26.987Z,3.03
2019-04-23T10:50:13.394Z,3.23
2019-04-23T10:52:36.310Z,4.40
2019-04-23T10:55:07.971Z,4.30
2019-04-23T10:57:39.340Z,4.00
2019-04-23T11:00:08.899Z,3.77
2019-04-23T11:05:16.318Z,4.93
2019-04-23T11:07:38.348Z,3.67
2019-04-23T11:10:17.470Z,4.67
2019-04-23T11:13:07.832Z,3.60
2019-04-23T11:17:59.541Z,4.47
2019-04-23T11:22:58.960Z,3.30
2019-04-23T11:28:22.725Z,4.20
2019-04-23T11:30:46.411Z,4.70
2019-04-23T11:36:18.993Z,3.93
2019-04-23T11:38:48.610Z,4.13
2019-04-23T11:41:05.474Z,3.63
2019-04-23T11:46:19.333Z,4.97
2019-04-23T11:51:43.629Z,6.60
2019-04-23T11:53:44.469Z,6.20
2019-04-23T11:56:22.754Z,4.03
2019-04-23T11:58:42.884Z,4.43
2019-04-23T12:01:42.233Z,4.43
2019-04-23T12:04:40.706Z,2.93
2019-04-23T12:07:00.680Z,3.70
2019-04-23T12:12:31.150Z,2.73
2019-04-23T12:15:07.220Z,4.13
2019-04-23T12:17:38.797Z,3.97
2019-04-23T12:22:48.962Z,3.97
2019-04-23T12:25:19.853Z,4.97
2019-04-23T12:27:33.245Z,4.77
2019-04-23T12:33:04.761Z,3.90
2019-04-23T12:35:19.601Z,3.00
2019-04-23T12:37:55.173Z,6.03
2019-04-23T12:45:31.852Z,5.13
2019-04-23T12:50:44.937Z,4.97
2019-04-23T12:53:29.253Z,4.93
2019-04-23T12:58:09.974Z,5.70
2019-04-23T13:00:36.346Z,4.23
2019-04-23T13:03:31.424Z,4.57
2019-04-23T13:05:37.124Z,4.73
2019-04-23T13:08:30.371Z,5.77
2019-04-23T13:10:48.206Z,6.13
2019-04-23T13:13:43.514Z,4.93
2019-04-23T13:16:12.429Z,4.73
2019-04-23T13:18:31.173Z,3.67
2019-04-23T13:20:51.527Z,5.60
2019-04-23T13:23:29.836Z,5.37
2019-04-23T13:26:10.070Z,5.70
2019-04-23T13:29:11.059Z,4.57
2019-04-23T13:34:00.032Z,5.00
2019-04-23T13:36:34.837Z,6.60
2019-04-23T13:38:58.480Z,7.23
2019-04-23T13:41:25.550Z,6.43
2019-04-23T13:46:32.929Z,4.20
2019-04-23T13:49:03.097Z,4.23
2019-04-23T13:51:34.255Z,5.20
2019-04-23T13:54:24.115Z,6.50
2019-04-23T13:56:53.821Z,5.80
2019-04-23T13:59:26.456Z,2.97
2019-04-23T14:04:32.495Z,4.23
2019-04-23T14:06:57.982Z,4.53
2019-04-23T14:09:39.521Z,4.27
2019-04-23T14:11:51.305Z,5.37
2019-04-23T14:14:41.849Z,5.13
2019-04-23T14:17:08.362Z,5.63
2019-04-23T14:19:38.313Z,5.07
2019-04-23T14:22:20.930Z,4.70
2019-04-23T14:24:53.248Z,4.43
2019-04-23T14:27:18.149Z,4.70
2019-04-23T14:29:49.772Z,4.70
2019-04-23T14:32:15.963Z,4.43
2019-04-23T14:35:00.947Z,3.70
2019-04-23T14:39:45.508Z,3.87
2019-04-23T14:42:26.487Z,4.83
2019-04-23T14:45:09.821Z,5.50
2019-04-23T14:47:32.478Z,4.53
2019-04-23T14:50:30.859Z,4.37
2019-04-23T14:52:38.968Z,4.80
2019-04-23T14:55:40.298Z,4.77
2019-04-23T14:57:42.479Z,4.43
2019-04-23T15:00:18.381Z,4.67
2019-04-23T15:02:44.622Z,4.07
2019-04-23T15:05:17.232Z,5.00
2019-04-23T15:07:42.210Z,5.00
2019-04-23T15:10:32.198Z,4.83
2019-04-23T15:15:19.342Z,5.87
2019-04-23T15:17:49.822Z,4.77
2019-04-23T15:20:25.058Z,5.70
2019-04-23T15:23:17.000Z,4.57
2019-04-23T15:30:21.249Z,3.50
2019-04-23T15:33:11.668Z,5.93
2019-04-23T15:35:49.882Z,6.50
2019-04-23T15:38:30.890Z,5.60
2019-04-23T15:40:36.808Z,5.93
2019-04-23T15:43:12.197Z,5.60
2019-04-23T15:48:19.108Z,5.80
2019-04-23T15:50:43.250Z,6.57
2019-04-23T15:53:04.794Z,3.60
2019-04-23T15:55:49.322Z,4.43
2019-04-23T16:01:18.374Z,5.50
2019-04-23T16:03:19.780Z,5.50
2019-04-23T16:05:48.752Z,5.30
2019-04-23T16:08:59.667Z,5.10
2019-04-23T16:11:44.165Z,4.53
2019-04-23T16:16:41.243Z,5.13
2019-04-23T16:19:24.442Z,5.40
2019-04-23T16:22:00.213Z,3.33
2019-04-23T16:24:21.914Z,5.70
2019-04-23T16:27:01.337Z,7.07
2019-04-23T16:32:08.431Z,5.40
2019-04-23T16:34:33.551Z,4.90
2019-04-23T16:37:15.436Z,4.97
2019-04-23T16:39:48.338Z,5.97
2019-04-23T16:42:18.186Z,5.17
2019-04-23T16:44:55.754Z,5.73
2019-04-23T16:49:58.906Z,5.57
2019-04-23T16:52:21.791Z,6.47
2019-04-23T16:55:07.476Z,6.10
2019-04-23T16:57:35.703Z,6.23
2019-04-23T17:02:24.566Z,6.47
2019-04-23T17:05:01.335Z,6.70
2019-04-23T17:07:25.599Z,5.87
2019-04-23T17:10:11.482Z,6.40
2019-04-23T17:12:28.040Z,6.83
2019-04-23T17:17:32.399Z,5.83
2019-04-23T17:20:16.305Z,4.47
2019-04-23T17:22:39.120Z,6.30
2019-04-23T17:27:51.056Z,6.60
2019-04-23T17:30:19.557Z,5.97
2019-04-23T17:33:04.028Z,5.07
2019-04-23T17:38:07.235Z,5.47
2019-04-23T17:40:45.093Z,7.90
2019-04-23T17:43:14.726Z,6.20
2019-04-23T17:45:45.192Z,6.37
2019-04-23T17:48:27.573Z,6.03
2019-04-23T17:51:19.694Z,6.73
2019-04-23T17:53:38.259Z,6.73
2019-04-23T18:01:20.030Z,7.13
2019-04-23T18:03:55.827Z,6.97
2019-04-23T18:06:28.286Z,6.10
2019-04-23T18:09:00.763Z,5.97
2019-04-23T18:13:57.098Z,6.60
2019-04-23T18:19:06.304Z,5.03
2019-04-23T18:24:22.658Z,6.50
2019-04-23T18:30:04.264Z,6.03
2019-04-23T18:35:40.827Z,6.03
2019-04-23T18:38:09.812Z,7.03
2019-04-23T18:40:40.393Z,6.37
2019-04-23T18:43:15.284Z,5.90
2019-04-23T18:45:46.801Z,6.50
2019-04-23T18:56:09.283Z,5.70
2019-04-23T18:58:51.999Z,7.30
2019-04-23T19:06:34.622Z,6.40
2019-04-23T19:09:47.841Z,7.00
2019-04-23T19:12:36.101Z,7.90
2019-04-23T19:17:46.655Z,6.83
2019-04-23T19:20:21.755Z,7.33
2019-04-23T19:22:46.156Z,5.30
2019-04-23T19:27:57.362Z,6.67
2019-04-23T19:30:28.436Z,7.50
2019-04-23T19:32:57.232Z,5.83
2019-04-23T19:35:39.931Z,7.40
2019-04-23T19:40:33.572Z,5.43
2019-04-23T19:42:55.273Z,6.77
2019-04-23T19:45:32.698Z,7.13
2019-04-23T19:48:11.189Z,7.67
2019-04-23T19:50:40.659Z,6.30
2019-04-23T19:53:21.089Z,7.43
2019-04-23T19:55:49.473Z,7.20
2019-04-23T20:00:55.419Z,8.13
2019-04-23T20:05:47.014Z,7.77
2019-04-23T20:08:25.442Z,8.57
2019-04-23T20:10:50.128Z,8.00
2019-04-23T20:13:21.832Z,7.70
2019-04-23T20:16:07.054Z,7.73
2019-04-23T20:18:35.376Z,8.73
2019-04-23T20:20:54.243Z,7.40
2019-04-23T20:23:52.249Z,5.57
2019-04-23T20:32:57.251Z,7.53
2019-04-23T20:36:45.197Z,8.20
2019-04-23T20:39:15.668Z,7.17
2019-04-23T20:47:06.226Z,6.60
2019-04-23T20:49:42.264Z,5.57
2019-04-23T20:52:05.052Z,6.40
2019-04-23T21:00:27.900Z,6.73
2019-04-23T21:03:16.950Z,5.87
2019-04-23T21:05:20.867Z,6.70
2019-04-23T21:07:57.697Z,4.73
2019-04-23T21:10:35.859Z,6.73
2019-04-23T21:15:35.280Z,4.30
2019-04-23T21:18:12.284Z,4.70
2019-04-23T21:20:38.018Z,6.13
2019-04-23T21:23:09.430Z,6.80
2019-04-23T21:31:00.705Z,5.00
2019-04-23T21:46:48.103Z,5.27
2019-04-23T21:49:24.691Z,5.10
2019-04-23T21:54:15.199Z,4.80
2019-04-23T21:56:47.048Z,6.20
2019-04-23T21:59:10.403Z,4.40
2019-04-23T22:01:55.804Z,5.63
2019-04-23T22:04:33.752Z,4.33
2019-04-23T22:06:56.125Z,5.83
2019-04-23T22:09:27.120Z,5.83
2019-04-23T22:12:05.594Z,5.23
2019-04-23T22:14:33.657Z,5.63
2019-04-23T22:17:06.173Z,5.17
2019-04-23T22:19:55.379Z,4.47
2019-04-23T22:22:28.114Z,4.67
2019-04-23T22:24:46.517Z,5.07
2019-04-23T22:27:05.470Z,5.80
2019-04-23T22:29:39.098Z,5.80
2019-04-23T22:32:02.872Z,4.70
2019-04-23T22:34:50.501Z,3.80
2019-04-23T22:37:14.578Z,5.17
2019-04-23T22:39:45.764Z,5.43
2019-04-23T22:42:34.493Z,4.67
2019-04-23T22:45:00.486Z,4.30
2019-04-23T22:47:14.108Z,4.70
2019-04-23T22:50:02.245Z,4.33
2019-04-23T22:55:04.995Z,4.80
2019-04-23T22:57:56.204Z,4.27
2019-04-23T23:00:13.481Z,5.17
2019-04-23T23:03:17.422Z,4.27
2019-04-23T23:05:53.028Z,3.93
2019-04-23T23:08:11.399Z,4.83
2019-04-23T23:13:12.101Z,5.00
2019-04-23T23:15:49.302Z,4.87
2019-04-23T23:23:17.725Z,4.20
2019-04-23T23:25:49.285Z,4.73
2019-04-23T23:28:20.233Z,5.33
2019-04-23T23:31:06.533Z,3.33
2019-04-23T23:33:27.232Z,2.93
2019-04-23T23:36:00.115Z,4.03
2019-04-23T23:38:37.247Z,4.50
2019-04-23T23:41:12.713Z,5.20
2019-04-23T23:53:51.661Z,4.03
2019-04-23T23:58:58.300Z,3.63
